Steenbergen, Netherlands
Current Conditions -  °F | °C
As of 2:25 AM on Tuesday 21 Oct 2014 (Local Time) from EHWO Reporting Station
Overcast Overcast  
Wind Chill: 55°   Ceiling: 5600
Heat Index: 55°   Visibility: 6mi
Dew Point: 50°   Wind: 9mph
Humidity: 82%   Direction: 220°SW
Pressure: 29.88"   Gusts: NA
Location:  51.58°N, 4.32°E
Report Text: EHWO 210025Z AUTO 22008KT 9999 FEW039 OVC056 13/10 Q1012 BLU
Loading
Personal Weather Stations






























Interactive Weather Map
Tropical Storm Tracking
New forecast layout! Learn more

10-Day Weather Forecast

Advertisements
Track Severe Weather on mobile